Time;durP1;ratioP1;P1;durP2;ratioP2;P2;SDS_P1;SDS_P2;PMS_P1;PMS_P2;Temp;Humidity;BMP_temperature;BMP_pressure;BME280_temperature;BME280_humidity;BME280_pressure;Samples;Min_cycle;Max_cycle;Signal;HPM_P1;HPM_P2
2022/05/13 00:02:22;;;;;;;10.40;6.72;;;24.20;58.60;;;;;;5088443;28;20107;-51
2022/05/13 00:04:47;;;;;;;8.30;6.53;;;24.20;58.60;;;;;;5067590;28;20153;-51
2022/05/13 00:07:13;;;;;;;9.70;6.20;;;24.10;59.10;;;;;;5074616;28;20017;-61
2022/05/13 00:09:57;;;;;;;8.38;7.20;;;24.00;59.40;;;;;;5085170;28;20074;-53
2022/05/13 00:12:30;;;;;;;;;;;23.90;59.90;;;;;;5079891;28;20056;-52
2022/05/13 00:14:57;;;;;;;9.18;6.32;;;23.80;60.50;;;;;;5063856;28;19912;-51
2022/05/13 00:17:24;;;;;;;10.48;7.25;;;23.80;60.00;;;;;;5079792;28;20244;-50
2022/05/13 00:19:50;;;;;;;13.30;7.88;;;23.80;60.10;;;;;;5061264;28;20024;-52
2022/05/13 00:22:16;;;;;;;10.30;7.10;;;23.80;60.20;;;;;;5064981;28;20144;-50
2022/05/13 00:24:42;;;;;;;11.85;6.93;;;23.90;60.10;;;;;;5069176;28;20052;-53
2022/05/13 00:27:08;;;;;;;7.50;6.00;;;23.90;60.00;;;;;;5081046;28;20048;-56
2022/05/13 00:29:34;;;;;;;6.47;5.57;;;23.90;59.80;;;;;;5085788;28;20050;-60
2022/05/13 00:32:00;;;;;;;11.45;7.68;;;24.00;59.50;;;;;;5083497;28;20427;-55
2022/05/13 00:34:26;;;;;;;9.48;6.78;;;24.00;60.40;;;;;;5082979;28;20033;-54
2022/05/13 00:36:52;;;;;;;10.15;6.68;;;23.90;59.80;;;;;;5085715;28;20504;-56
2022/05/13 00:39:19;;;;;;;13.98;5.28;;;23.90;57.40;;;;;;5084217;28;20058;-54
2022/05/13 00:41:46;;;;;;;11.05;4.65;;;23.80;55.50;;;;;;5086887;28;20032;-57
2022/05/13 00:44:12;;;;;;;8.07;4.28;;;23.90;53.90;;;;;;5082108;28;20031;-66
2022/05/13 00:46:38;;;;;;;8.90;4.10;;;23.90;52.90;;;;;;5067461;28;20029;-55
2022/05/13 00:49:09;;;;;;;9.68;3.95;;;23.80;52.10;;;;;;5082652;28;20034;-59
2022/05/13 00:51:41;;;;;;;13.23;4.00;;;23.80;51.60;;;;;;5062283;28;20077;-56
2022/05/13 00:54:10;;;;;;;6.28;3.55;;;23.80;51.70;;;;;;5081111;28;20013;-57
2022/05/13 00:56:36;;;;;;;9.40;3.75;;;23.80;51.80;;;;;;5074307;28;20176;-57
2022/05/13 00:59:05;;;;;;;15.80;4.15;;;23.70;52.00;;;;;;5083013;28;20024;-59
2022/05/13 01:01:33;;;;;;;8.63;3.50;;;23.70;53.20;;;;;;5084298;28;20069;-57
2022/05/13 01:04:03;;;;;;;6.72;3.10;;;23.40;55.20;;;;;;5061527;28;20023;-55
2022/05/13 01:06:30;;;;;;;8.68;3.78;;;23.40;54.80;;;;;;5068800;28;20413;-57
2022/05/13 01:08:56;;;;;;;8.02;3.60;;;23.40;55.10;;;;;;5089635;28;20047;-58
2022/05/13 01:11:26;;;;;;;14.63;3.90;;;23.40;55.30;;;;;;5085207;28;20051;-50
2022/05/13 01:13:58;;;;;;;8.93;3.58;;;23.40;56.20;;;;;;5090141;28;20032;-56
2022/05/13 01:16:24;;;;;;;12.10;4.65;;;23.30;56.90;;;;;;5088585;28;20448;-62
2022/05/13 01:18:50;;;;;;;9.95;3.88;;;23.20;58.10;;;;;;5087221;28;20028;-54
2022/05/13 01:21:25;;;;;;;9.95;3.97;;;23.00;59.20;;;;;;5091833;28;20031;-64
2022/05/13 01:23:52;;;;;;;10.85;4.53;;;22.90;60.00;;;;;;5093417;28;20031;-57
2022/05/13 01:26:26;;;;;;;20.45;4.63;;;22.80;60.80;;;;;;5089642;28;20119;-55
2022/05/13 01:28:54;;;;;;;9.57;3.80;;;22.60;62.80;;;;;;5091978;28;20080;-51
2022/05/13 01:31:24;;;;;;;10.35;3.90;;;22.80;61.90;;;;;;5074968;28;20362;-52
2022/05/13 01:33:50;;;;;;;11.82;4.00;;;23.10;60.20;;;;;;5087118;28;20039;-47
2022/05/13 01:36:15;;;;;;;8.90;3.40;;;23.40;59.20;;;;;;5088538;28;20029;-57
2022/05/13 01:38:42;;;;;;;10.23;4.10;;;23.70;58.20;;;;;;5091127;28;20024;-49
2022/05/13 01:41:10;;;;;;;11.73;3.92;;;23.90;57.80;;;;;;5089879;28;20036;-49
2022/05/13 01:43:36;;;;;;;7.82;3.38;;;24.00;57.10;;;;;;5088276;28;20284;-51
2022/05/13 01:46:02;;;;;;;6.80;3.50;;;24.20;56.60;;;;;;5088660;28;20111;-48
2022/05/13 01:48:28;;;;;;;7.00;3.45;;;24.30;55.80;;;;;;5091925;28;20119;-49
2022/05/13 01:50:54;;;;;;;8.07;3.40;;;24.40;55.50;;;;;;5092802;28;20024;-47
2022/05/13 01:53:21;;;;;;;6.43;3.40;;;24.40;55.80;;;;;;5071747;28;20088;-56
2022/05/13 01:55:47;;;;;;;7.30;3.53;;;24.60;55.00;;;;;;5067003;28;20032;-49
2022/05/13 01:58:14;;;;;;;8.13;3.35;;;24.60;55.00;;;;;;5088678;28;20227;-50
2022/05/13 02:00:42;;;;;;;8.70;3.72;;;24.60;54.60;;;;;;5075500;28;20077;-50
2022/05/13 02:05:52;;;;;;;;;;;24.70;54.20;;;;;;5092311;28;20424;-47
2022/05/13 02:08:17;;;;;;;10.40;3.80;;;24.80;55.10;;;;;;5091309;28;19908;-54
2022/05/13 02:10:43;;;;;;;9.10;3.70;;;24.80;55.00;;;;;;5083825;28;20028;-48
2022/05/13 02:13:10;;;;;;;6.60;3.38;;;24.80;55.00;;;;;;5088101;28;20031;-47
2022/05/13 02:15:36;;;;;;;7.80;3.53;;;24.80;55.00;;;;;;5089243;28;20051;-51
2022/05/13 02:18:02;;;;;;;8.18;3.78;;;24.80;54.80;;;;;;5087841;28;20484;-48
2022/05/13 02:20:28;;;;;;;6.25;3.47;;;24.80;55.20;;;;;;5072017;28;20147;-51
2022/05/13 02:22:53;;;;;;;6.05;3.53;;;24.80;55.20;;;;;;5090400;28;20016;-50
2022/05/13 02:25:19;;;;;;;7.35;3.65;;;24.80;55.30;;;;;;5089283;28;20477;-56
2022/05/13 02:27:44;;;;;;;8.77;3.63;;;24.80;54.90;;;;;;5089351;28;20031;-51
2022/05/13 02:30:12;;;;;;;7.15;3.58;;;24.80;55.10;;;;;;5073212;28;20020;-52
2022/05/13 02:32:38;;;;;;;10.07;3.75;;;24.80;55.00;;;;;;5090045;28;20067;-47
2022/05/13 02:35:05;;;;;;;6.82;3.53;;;24.80;54.90;;;;;;5090578;28;20071;-52
2022/05/13 02:37:30;;;;;;;8.35;3.58;;;24.80;55.20;;;;;;5087952;28;20071;-51
2022/05/13 02:39:56;;;;;;;9.05;3.28;;;24.80;55.20;;;;;;5091851;28;20039;-48
2022/05/13 02:42:22;;;;;;;7.95;3.33;;;24.80;55.20;;;;;;5090345;28;20032;-57
2022/05/13 02:44:48;;;;;;;9.10;3.33;;;24.80;55.00;;;;;;5091599;28;20020;-48
2022/05/13 02:47:13;;;;;;;5.85;3.30;;;24.80;55.00;;;;;;5089664;28;20393;-52
2022/05/13 02:49:39;;;;;;;7.15;3.47;;;24.80;54.70;;;;;;5086889;28;20036;-53
2022/05/13 02:52:05;;;;;;;7.68;2.90;;;24.80;54.90;;;;;;5085876;28;20123;-52
2022/05/13 02:54:31;;;;;;;7.13;2.80;;;24.80;54.40;;;;;;5072551;28;20058;-53
2022/05/13 02:56:56;;;;;;;6.72;3.05;;;24.80;54.30;;;;;;5084181;28;20047;-51
2022/05/13 02:59:22;;;;;;;7.65;3.22;;;24.80;54.30;;;;;;5090478;28;20493;-57
2022/05/13 03:01:48;;;;;;;9.45;3.13;;;24.80;54.50;;;;;;5081917;28;20021;-53
2022/05/13 03:04:14;;;;;;;5.35;2.75;;;24.80;54.30;;;;;;5087107;28;20092;-49
2022/05/13 03:06:39;;;;;;;5.07;2.53;;;24.80;54.40;;;;;;5086589;28;20020;-53
2022/05/13 03:09:05;;;;;;;6.72;2.60;;;24.80;54.80;;;;;;5071273;28;20013;-50
2022/05/13 03:11:31;;;;;;;6.65;2.90;;;24.80;54.70;;;;;;5087929;28;20072;-48
2022/05/13 03:13:57;;;;;;;7.78;2.72;;;24.80;54.50;;;;;;5090669;28;20377;-52
2022/05/13 03:16:24;;;;;;;5.07;2.58;;;24.80;54.40;;;;;;5084168;28;20487;-56
2022/05/13 03:18:53;;;;;;;7.32;2.95;;;24.80;54.40;;;;;;5080596;28;20016;-51
2022/05/13 03:21:20;;;;;;;6.35;2.92;;;24.80;54.70;;;;;;5090380;28;20031;-48
2022/05/13 03:23:46;;;;;;;8.40;2.90;;;24.80;54.50;;;;;;5089413;28;20469;-48
2022/05/13 03:26:15;;;;;;;5.97;2.60;;;24.80;54.40;;;;;;5084553;28;20597;-51
2022/05/13 03:28:41;;;;;;;6.20;2.78;;;24.80;54.70;;;;;;5084304;28;20028;-50
2022/05/13 03:31:07;;;;;;;6.35;3.40;;;24.80;54.70;;;;;;5082084;28;20031;-51
2022/05/13 03:33:33;;;;;;;7.18;2.88;;;24.80;54.60;;;;;;5079642;28;20392;-46
2022/05/13 03:35:59;;;;;;;7.43;2.85;;;24.80;54.40;;;;;;5081438;28;20046;-54
2022/05/13 03:38:24;;;;;;;7.57;2.97;;;24.70;54.80;;;;;;5083199;28;20414;-57
2022/05/13 03:40:50;;;;;;;4.40;2.80;;;24.70;54.80;;;;;;5087415;28;20023;-53
2022/05/13 03:43:17;;;;;;;5.40;3.05;;;24.70;54.70;;;;;;5084617;28;20044;-56
2022/05/13 03:45:43;;;;;;;6.10;3.03;;;24.70;54.70;;;;;;5080851;28;20133;-48
2022/05/13 03:48:09;;;;;;;4.80;2.85;;;24.70;54.80;;;;;;5084919;28;20031;-49
2022/05/13 03:50:37;;;;;;;4.93;2.60;;;24.70;55.00;;;;;;5086506;28;20093;-47
2022/05/13 03:53:04;;;;;;;6.75;3.25;;;24.70;54.50;;;;;;5075189;28;20020;-50
2022/05/13 03:55:30;;;;;;;7.28;3.17;;;24.70;54.60;;;;;;5069554;28;20063;-54
2022/05/13 03:57:56;;;;;;;7.25;3.50;;;24.70;54.80;;;;;;5066292;28;20115;-53
2022/05/13 04:00:22;;;;;;;7.72;3.30;;;24.70;55.00;;;;;;5072179;28;20104;-50
2022/05/13 04:02:48;;;;;;;6.65;3.15;;;24.70;55.00;;;;;;5083102;28;20425;-52
2022/05/13 04:10:43;;;;;;;5.90;3.40;;;24.70;55.00;;;;;;5084815;28;20033;-50
2022/05/13 04:16:06;;;;;;;5.95;3.50;;;24.80;54.90;;;;;;5085071;28;20138;-55
2022/05/13 04:18:43;;;;;;;6.38;2.85;;;24.70;54.70;;;;;;5088690;28;20076;-55
2022/05/13 04:21:13;;;;;;;5.00;2.80;;;24.80;54.80;;;;;;5069354;28;20039;-49
2022/05/13 04:23:42;;;;;;;5.93;3.38;;;24.80;55.00;;;;;;5082110;28;20020;-50
2022/05/13 04:26:12;;;;;;;4.60;2.65;;;24.80;55.00;;;;;;5067474;28;20043;-50
2022/05/13 04:28:38;;;;;;;7.85;3.47;;;24.70;54.80;;;;;;5080276;28;20028;-51
2022/05/13 04:31:04;;;;;;;6.18;3.00;;;24.80;55.10;;;;;;5088669;28;20161;-51
2022/05/13 04:33:30;;;;;;;6.22;3.03;;;24.80;55.00;;;;;;5080280;28;20525;-58
2022/05/13 04:35:55;;;;;;;8.20;3.22;;;24.80;54.70;;;;;;5069792;28;20028;-52
2022/05/13 04:38:21;;;;;;;4.75;2.75;;;24.80;54.80;;;;;;5083377;28;20111;-53
2022/05/13 04:40:47;;;;;;;7.35;2.80;;;24.80;54.70;;;;;;5068936;28;20066;-53
2022/05/13 04:43:13;;;;;;;5.90;2.60;;;24.80;54.60;;;;;;5084689;28;20500;-51
2022/05/13 04:45:38;;;;;;;5.22;2.92;;;24.80;54.40;;;;;;5085287;28;20079;-53
2022/05/13 04:48:21;;;;;;;4.65;2.30;;;24.80;54.40;;;;;;5090006;28;20682;-52
2022/05/13 04:50:50;;;;;;;6.15;2.60;;;24.80;54.30;;;;;;5084637;28;20755;-50
2022/05/13 04:53:18;;;;;;;7.07;2.60;;;24.80;54.00;;;;;;5070729;28;20039;-50
2022/05/13 04:55:44;;;;;;;5.90;2.78;;;24.80;54.20;;;;;;5086313;28;20031;-51
2022/05/13 04:58:10;;;;;;;6.88;2.80;;;24.80;54.40;;;;;;5085315;28;20431;-47
2022/05/13 05:00:35;;;;;;;5.10;2.67;;;24.80;54.50;;;;;;5067253;28;20066;-53
2022/05/13 05:03:01;;;;;;;6.38;2.63;;;24.80;54.50;;;;;;5063529;28;20434;-51
2022/05/13 05:05:27;;;;;;;5.55;2.60;;;24.80;54.30;;;;;;5089725;28;20462;-50
2022/05/13 05:07:54;;;;;;;3.90;2.47;;;24.80;53.90;;;;;;5084944;28;20100;-54
2022/05/13 05:10:21;;;;;;;6.13;2.55;;;24.80;53.50;;;;;;5083939;28;20048;-51
2022/05/13 05:12:56;;;;;;;6.28;2.58;;;24.90;53.50;;;;;;5068398;28;20054;-54
2022/05/13 05:15:24;;;;;;;4.03;2.58;;;24.90;52.90;;;;;;5061981;28;20027;-53
2022/05/13 05:17:49;;;;;;;7.88;2.70;;;24.90;52.90;;;;;;5092783;28;20081;-52
2022/05/13 05:20:16;;;;;;;7.85;2.45;;;24.90;53.10;;;;;;5093351;28;20028;-48
2022/05/13 05:22:44;;;;;;;4.63;2.75;;;24.90;52.90;;;;;;5089032;28;20016;-54
2022/05/13 05:25:11;;;;;;;5.82;2.92;;;24.90;53.00;;;;;;5072417;28;20038;-52
2022/05/13 05:27:36;;;;;;;10.32;2.38;;;24.90;53.10;;;;;;5091226;28;20031;-54
2022/05/13 05:30:05;;;;;;;6.45;2.78;;;24.90;52.80;;;;;;5092433;28;20020;-53
2022/05/13 05:32:31;;;;;;;6.03;2.42;;;24.90;53.60;;;;;;5089479;28;20069;-53
2022/05/13 05:34:56;;;;;;;3.90;2.60;;;24.90;53.80;;;;;;5062453;28;20465;-51
2022/05/13 05:37:22;;;;;;;5.55;2.60;;;24.90;53.40;;;;;;5071398;28;20469;-53
2022/05/13 05:39:48;;;;;;;5.38;2.30;;;24.90;53.00;;;;;;5088931;28;20024;-48
2022/05/13 05:42:14;;;;;;;6.25;2.60;;;25.00;53.10;;;;;;5088251;28;20412;-53
2022/05/13 05:44:39;;;;;;;5.88;2.42;;;24.90;53.40;;;;;;5091117;28;20083;-53
2022/05/13 05:47:05;;;;;;;5.38;2.70;;;24.90;53.30;;;;;;5089291;28;20039;-52
2022/05/13 05:49:31;;;;;;;7.15;2.97;;;24.90;53.40;;;;;;5090997;28;20032;-49
2022/05/13 05:51:57;;;;;;;5.15;2.78;;;25.00;53.30;;;;;;5089101;28;20182;-51
2022/05/13 05:57:16;;;;;;;7.45;3.00;;;25.00;53.50;;;;;;5084606;28;20127;-53
2022/05/13 05:59:46;;;;;;;5.05;3.00;;;25.00;53.90;;;;;;5079665;28;20024;-50
2022/05/13 06:02:13;;;;;;;7.20;2.90;;;24.90;53.40;;;;;;5086738;28;20419;-51
2022/05/13 06:04:39;;;;;;;8.23;2.75;;;25.00;53.40;;;;;;5083721;28;20028;-55
2022/05/13 06:07:08;;;;;;;6.53;2.33;;;25.00;53.80;;;;;;5057458;28;20035;-52
2022/05/13 06:09:33;;;;;;;5.68;2.35;;;25.00;53.30;;;;;;5087820;28;20496;-49
2022/05/13 06:12:00;;;;;;;5.78;2.67;;;25.00;53.10;;;;;;5089180;28;20052;-47
2022/05/13 06:14:27;;;;;;;10.98;3.30;;;25.00;53.50;;;;;;5084104;28;20028;-52
2022/05/13 06:16:53;;;;;;;8.65;3.03;;;25.00;54.00;;;;;;5081191;28;20073;-51
2022/05/13 06:19:19;;;;;;;5.60;3.60;;;25.00;53.50;;;;;;5087003;28;20059;-51
2022/05/13 06:21:45;;;;;;;10.40;2.55;;;25.10;54.10;;;;;;5080603;28;20052;-51
2022/05/13 06:24:11;;;;;;;6.90;2.63;;;25.10;53.40;;;;;;5087643;28;20048;-50
2022/05/13 06:26:37;;;;;;;8.35;2.70;;;25.10;52.70;;;;;;5088808;28;20492;-57
2022/05/13 06:29:04;;;;;;;5.68;2.50;;;25.10;52.50;;;;;;5090299;28;20363;-51
2022/05/13 06:31:29;;;;;;;8.18;3.10;;;25.10;52.40;;;;;;5080623;28;20024;-51
2022/05/13 06:33:55;;;;;;;7.55;2.58;;;25.20;52.20;;;;;;5087050;28;20114;-53
2022/05/13 06:36:21;;;;;;;7.97;2.38;;;25.20;52.10;;;;;;5072172;28;20397;-52
2022/05/13 06:38:47;;;;;;;6.15;2.58;;;25.30;51.90;;;;;;5077534;28;20119;-49
2022/05/13 06:41:13;;;;;;;5.65;2.45;;;25.30;51.90;;;;;;5066974;28;20016;-54
2022/05/13 06:43:38;;;;;;;4.38;3.08;;;25.30;51.60;;;;;;5083804;28;20036;-57
2022/05/13 06:46:05;;;;;;;7.93;4.10;;;25.30;51.70;;;;;;5081689;28;20027;-48
2022/05/13 06:48:30;;;;;;;8.25;5.07;;;25.30;51.80;;;;;;5082298;28;20024;-51
2022/05/13 06:50:56;;;;;;;8.60;5.63;;;25.30;51.80;;;;;;5082964;28;20595;-53
2022/05/13 06:53:23;;;;;;;10.73;5.72;;;25.30;51.80;;;;;;5077181;28;20028;-53
2022/05/13 06:55:49;;;;;;;15.77;6.00;;;25.40;51.90;;;;;;5078674;28;20036;-51
2022/05/13 06:58:15;;;;;;;11.82;6.47;;;25.40;51.90;;;;;;5082219;28;20012;-53
2022/05/13 07:00:43;;;;;;;13.35;5.63;;;25.30;51.80;;;;;;5063357;28;20020;-59
2022/05/13 07:03:16;;;;;;;13.38;5.78;;;25.40;51.90;;;;;;5055995;28;20039;-52
2022/05/13 07:05:42;;;;;;;14.43;6.18;;;25.40;51.90;;;;;;5087795;28;20028;-56
2022/05/13 07:08:09;;;;;;;11.45;5.65;;;25.40;51.80;;;;;;5086258;28;20044;-49
2022/05/13 07:10:35;;;;;;;10.18;5.30;;;25.40;51.80;;;;;;5076703;28;20028;-50
2022/05/13 07:13:06;;;;;;;11.43;4.85;;;25.50;51.80;;;;;;5088382;28;20020;-51
2022/05/13 07:15:32;;;;;;;17.17;5.30;;;25.50;51.70;;;;;;5089697;28;20023;-52
2022/05/13 07:17:58;;;;;;;9.38;4.88;;;25.50;51.80;;;;;;5077796;28;20027;-54
2022/05/13 07:20:26;;;;;;;11.65;4.70;;;25.50;51.90;;;;;;5070244;28;20024;-52
2022/05/13 07:22:53;;;;;;;14.82;4.63;;;25.40;51.80;;;;;;5086042;28;20016;-51
2022/05/13 07:25:19;;;;;;;11.90;4.45;;;25.40;51.70;;;;;;5078941;28;20136;-52
2022/05/13 07:27:44;;;;;;;13.52;4.50;;;25.40;51.80;;;;;;5075747;28;20115;-49
2022/05/13 07:30:11;;;;;;;12.57;4.40;;;25.40;51.80;;;;;;5055371;28;21018;-50
2022/05/13 07:32:37;;;;;;;10.50;4.95;;;25.40;52.00;;;;;;5081777;28;20481;-59
2022/05/13 07:35:03;;;;;;;14.25;4.32;;;25.40;52.00;;;;;;5059996;28;20086;-57
2022/05/13 07:37:29;;;;;;;14.30;4.47;;;25.40;52.00;;;;;;5071036;28;20024;-54
2022/05/13 07:42:39;;;;;;;28.75;4.97;;;25.50;52.00;;;;;;5073820;28;20055;-52
2022/05/13 07:45:06;;;;;;;19.88;4.57;;;25.50;51.90;;;;;;5077897;28;20469;-56
2022/05/13 07:47:32;;;;;;;14.65;4.20;;;25.50;51.90;;;;;;5078025;28;20027;-52
2022/05/13 07:49:57;;;;;;;8.55;3.50;;;25.50;51.90;;;;;;5085387;28;20058;-53
2022/05/13 07:52:24;;;;;;;13.75;4.53;;;25.40;52.10;;;;;;5077549;28;20028;-52
2022/05/13 07:54:50;;;;;;;10.35;4.20;;;25.40;52.40;;;;;;5078479;28;20054;-51
2022/05/13 07:57:16;;;;;;;10.50;3.70;;;25.40;53.00;;;;;;5082092;28;20024;-48
2022/05/13 08:02:25;;;;;;;8.73;4.15;;;25.40;53.80;;;;;;5075040;28;20911;-50
2022/05/13 08:04:51;;;;;;;9.32;4.00;;;25.40;53.70;;;;;;5062660;28;20542;-48
2022/05/13 08:07:18;;;;;;;7.95;3.78;;;25.40;53.90;;;;;;5072863;28;20028;-51
2022/05/13 08:09:44;;;;;;;10.10;4.40;;;25.40;54.20;;;;;;5070082;28;20805;-57
2022/05/13 08:12:10;;;;;;;11.13;4.10;;;25.40;54.10;;;;;;5066892;28;20028;-54
2022/05/13 08:14:36;;;;;;;9.07;3.95;;;25.40;53.50;;;;;;5073878;28;20036;-55
2022/05/13 08:17:02;;;;;;;9.05;4.25;;;25.40;53.50;;;;;;5053055;28;20035;-55
2022/05/13 08:19:27;;;;;;;9.45;4.00;;;25.40;53.90;;;;;;5081139;28;20392;-56
2022/05/13 08:21:53;;;;;;;7.07;3.60;;;25.40;54.10;;;;;;5070719;28;20032;-58
2022/05/13 08:24:19;;;;;;;11.25;4.07;;;25.40;54.60;;;;;;5066255;28;20093;-50
2022/05/13 08:26:44;;;;;;;15.55;3.85;;;25.40;54.80;;;;;;5080299;28;20028;-54
2022/05/13 08:29:10;;;;;;;6.60;3.63;;;25.40;54.80;;;;;;5077969;28;20028;-51
2022/05/13 08:31:36;;;;;;;6.15;3.88;;;25.40;55.00;;;;;;5079622;28;20043;-51
2022/05/13 08:34:01;;;;;;;6.60;4.55;;;25.40;55.00;;;;;;5079236;28;20088;-53
2022/05/13 08:36:27;;;;;;;5.80;3.83;;;25.40;55.10;;;;;;5051335;28;20024;-51
2022/05/13 08:38:53;;;;;;;6.80;3.50;;;25.40;55.10;;;;;;5059645;28;20035;-56
2022/05/13 08:41:38;;;;;;;5.20;3.50;;;25.40;55.20;;;;;;5077484;28;20024;-53
2022/05/13 08:44:07;;;;;;;9.15;4.07;;;25.40;55.30;;;;;;5082322;28;20024;-52
2022/05/13 08:46:41;;;;;;;8.02;3.30;;;25.50;55.20;;;;;;5073555;28;20190;-51
2022/05/13 08:53:08;;;;;;;6.18;3.80;;;25.60;55.20;;;;;;5083964;28;20069;-55
2022/05/13 08:55:46;;;;;;;6.35;3.33;;;25.60;55.10;;;;;;5081909;28;20035;-49
2022/05/13 08:58:40;;;;;;;5.45;3.63;;;25.70;55.00;;;;;;5065373;28;20370;-50
2022/05/13 09:01:11;;;;;;;7.22;3.30;;;25.80;55.00;;;;;;5075920;28;20075;-51
2022/05/13 09:03:46;;;;;;;6.30;2.97;;;25.80;54.80;;;;;;5064792;28;20028;-50
2022/05/13 09:06:21;;;;;;;16.48;3.22;;;25.90;54.70;;;;;;5085610;28;20034;-59
2022/05/13 09:08:47;;;;;;;6.97;3.30;;;25.90;54.50;;;;;;5081363;28;20078;-54
2022/05/13 09:11:18;;;;;;;6.20;3.55;;;25.90;54.50;;;;;;5079932;28;20166;-53
2022/05/13 09:14:10;;;;;;;6.50;3.60;;;25.80;54.60;;;;;;5065066;28;20090;-57
2022/05/13 09:16:54;;;;;;;13.18;3.83;;;25.80;54.70;;;;;;5081035;28;20044;-56
2022/05/13 09:19:35;;;;;;;4.65;3.08;;;25.70;54.90;;;;;;5069019;28;20467;-54
2022/05/13 09:22:07;;;;;;;10.45;3.13;;;25.70;54.70;;;;;;5085020;28;20035;-53
2022/05/13 09:24:32;;;;;;;8.05;3.42;;;25.70;54.60;;;;;;5085280;28;20532;-56
2022/05/13 09:26:58;;;;;;;9.95;3.30;;;25.70;54.60;;;;;;5088983;28;20052;-53
2022/05/13 09:29:24;;;;;;;8.48;3.50;;;25.80;54.40;;;;;;5091671;28;20097;-50
2022/05/13 09:32:00;;;;;;;11.40;3.50;;;25.80;54.50;;;;;;5086283;28;20487;-49
2022/05/13 09:34:36;;;;;;;5.30;3.38;;;25.80;54.80;;;;;;5069081;28;20036;-52
2022/05/13 09:37:30;;;;;;;6.90;3.22;;;25.90;54.40;;;;;;5082483;28;20020;-50
2022/05/13 09:40:05;;;;;;;5.35;3.03;;;25.90;54.20;;;;;;5085039;28;20069;-54
2022/05/13 09:42:40;;;;;;;5.78;3.40;;;26.00;53.90;;;;;;5057510;28;20040;-48
2022/05/13 09:45:22;;;;;;;4.40;3.08;;;26.00;53.90;;;;;;5081148;28;20464;-52
2022/05/13 09:48:16;;;;;;;10.32;3.38;;;26.00;53.80;;;;;;5085674;28;20032;-54
2022/05/13 09:50:50;;;;;;;3.95;2.90;;;25.90;53.90;;;;;;5089802;28;20020;-56
2022/05/13 09:53:21;;;;;;;6.45;3.05;;;25.90;54.00;;;;;;5088584;28;20072;-54
2022/05/13 09:55:52;;;;;;;6.07;3.55;;;25.90;54.10;;;;;;5063604;28;20032;-56
2022/05/13 09:58:21;;;;;;;4.68;3.13;;;26.00;54.10;;;;;;5089927;28;20546;-51
2022/05/13 10:00:50;;;;;;;7.30;3.47;;;26.00;54.00;;;;;;5061398;28;20043;-52
2022/05/13 10:03:21;;;;;;;4.97;3.15;;;26.00;54.00;;;;;;5087818;28;20028;-47
2022/05/13 10:06:10;;;;;;;6.10;3.20;;;26.00;53.70;;;;;;5066638;28;20480;-52
2022/05/13 10:08:53;;;;;;;8.00;3.25;;;26.10;53.90;;;;;;5075779;28;20054;-51
2022/05/13 10:14:33;;;;;;;7.72;3.95;;;26.20;54.10;;;;;;5077222;28;20379;-54
2022/05/13 10:17:22;;;;;;;6.38;3.72;;;26.10;53.70;;;;;;5088446;28;20089;-51
2022/05/13 10:20:02;;;;;;;5.05;3.30;;;26.10;53.90;;;;;;5088387;28;20035;-53
2022/05/13 10:22:55;;;;;;;6.18;4.47;;;26.00;54.10;;;;;;5089560;28;20334;-53
2022/05/13 10:25:29;;;;;;;9.88;4.15;;;25.90;54.10;;;;;;5087884;28;20024;-53
2022/05/13 10:28:01;;;;;;;8.57;4.55;;;25.80;54.20;;;;;;5086872;28;20023;-52
2022/05/13 10:30:54;;;;;;;9.50;4.63;;;25.70;54.30;;;;;;5062406;28;20029;-54
2022/05/13 10:33:28;;;;;;;7.53;4.22;;;25.60;54.10;;;;;;5078981;28;20133;-51
2022/05/13 10:36:04;;;;;;;5.07;4.30;;;25.70;54.10;;;;;;5081698;28;20028;-50
2022/05/13 10:38:48;;;;;;;7.75;4.20;;;25.80;54.00;;;;;;5085535;28;20174;-51
2022/05/13 10:41:21;;;;;;;;;;;25.90;53.80;;;;;;5085627;28;20032;-51
2022/05/13 10:44:10;;;;;;;40.80;6.13;;;26.00;53.70;;;;;;5085455;28;19916;-51
2022/05/13 10:46:44;;;;;;;5.97;3.70;;;26.10;53.50;;;;;;5088810;28;20093;-46
2022/05/13 10:49:11;;;;;;;11.60;3.45;;;26.30;53.00;;;;;;5065945;28;20027;-46
2022/05/13 10:51:45;;;;;;;9.80;4.13;;;26.50;52.40;;;;;;5089896;28;20027;-46
2022/05/13 10:54:14;;;;;;;10.52;4.28;;;26.70;51.80;;;;;;5085616;28;20020;-45
2022/05/13 10:57:03;;;;;;;9.18;3.97;;;26.80;51.60;;;;;;5075136;28;20028;-45
2022/05/13 10:59:52;;;;;;;6.80;3.75;;;27.00;51.20;;;;;;5053808;28;20119;-47
2022/05/13 11:02:28;;;;;;;7.75;3.70;;;27.00;51.10;;;;;;5082028;28;20540;-49
2022/05/13 11:05:22;;;;;;;9.90;3.47;;;27.10;51.00;;;;;;5069794;28;20115;-43
2022/05/13 11:08:09;;;;;;;6.40;3.88;;;27.10;50.80;;;;;;5077959;28;20029;-53
2022/05/13 11:11:00;;;;;;;5.97;4.18;;;27.10;50.70;;;;;;5059189;28;20036;-52
2022/05/13 11:13:43;;;;;;;10.90;4.05;;;27.20;50.90;;;;;;5081587;28;20485;-53
2022/05/13 11:16:38;;;;;;;5.80;3.92;;;27.20;50.70;;;;;;5074865;28;20024;-51
2022/05/13 11:19:26;;;;;;;6.95;3.75;;;27.20;50.40;;;;;;5062978;28;20407;-49
2022/05/13 11:22:07;;;;;;;7.43;3.92;;;27.30;50.20;;;;;;5082148;28;20074;-50
2022/05/13 11:27:39;;;;;;;8.50;4.00;;;27.30;49.90;;;;;;5075549;28;20044;-49
2022/05/13 11:30:13;;;;;;;7.40;3.42;;;27.40;49.80;;;;;;5061231;28;20365;-49
2022/05/13 11:33:11;;;;;;;8.45;3.90;;;27.40;49.60;;;;;;5085012;28;20023;-50
2022/05/13 11:35:41;;;;;;;5.35;3.70;;;27.50;49.40;;;;;;4984351;28;20108;-44
2022/05/13 11:38:20;;;;;;;5.72;3.47;;;27.50;49.30;;;;;;4982249;28;20121;-53
2022/05/13 11:41:10;;;;;;;7.30;3.78;;;27.50;49.00;;;;;;4983863;28;20133;-52
2022/05/13 11:44:01;;;;;;;7.28;3.90;;;27.60;49.10;;;;;;4983613;28;20117;-52
2022/05/13 11:46:54;;;;;;;5.75;3.70;;;27.60;49.10;;;;;;4981809;28;20046;-52
2022/05/13 11:49:33;;;;;;;5.53;3.42;;;27.50;49.10;;;;;;4982942;28;20113;-51
2022/05/13 11:52:46;;;;;;;4.82;3.45;;;27.50;48.90;;;;;;4976813;28;20030;-51
2022/05/13 11:55:11;;;;;;;6.75;3.95;;;27.50;48.90;;;;;;4963729;28;20034;-47
2022/05/13 11:57:48;;;;;;;7.32;3.65;;;27.50;48.90;;;;;;4982468;28;20030;-51
2022/05/13 12:00:30;;;;;;;6.65;3.78;;;27.50;48.90;;;;;;4982719;28;20085;-52
2022/05/13 12:03:08;;;;;;;6.35;3.95;;;27.50;49.10;;;;;;4984399;28;20041;-47
2022/05/13 12:05:55;;;;;;;4.70;3.78;;;27.50;49.00;;;;;;4981021;28;20057;-47
2022/05/13 12:08:30;;;;;;;7.03;3.85;;;27.50;48.70;;;;;;4983580;28;20179;-48
2022/05/13 12:11:02;;;;;;;6.93;3.60;;;27.60;48.60;;;;;;4970461;28;20029;-47
2022/05/13 12:13:41;;;;;;;8.05;3.83;;;27.60;48.60;;;;;;5078783;28;20046;-48
2022/05/13 12:16:24;;;;;;;12.27;3.50;;;27.60;48.80;;;;;;5055165;28;20099;-48
2022/05/13 12:19:09;;;;;;;9.15;4.13;;;27.60;48.80;;;;;;5077801;28;20020;-48
2022/05/13 12:21:46;;;;;;;7.93;4.10;;;27.60;48.80;;;;;;5076134;28;20055;-47
2022/05/13 12:24:11;;;;;;;8.10;4.00;;;27.60;48.90;;;;;;5071868;28;20027;-50
2022/05/13 12:26:53;;;;;;;6.18;3.90;;;27.60;48.70;;;;;;5081619;28;20098;-54
2022/05/13 12:29:22;;;;;;;8.15;4.00;;;27.60;48.50;;;;;;5061074;28;20102;-50
2022/05/13 12:31:54;;;;;;;7.38;3.95;;;27.70;48.40;;;;;;5057060;28;20027;-49
2022/05/13 12:37:34;;;;;;;7.28;3.42;;;27.70;48.10;;;;;;5069860;28;20082;-48
2022/05/13 12:39:59;;;;;;;5.45;3.30;;;27.70;48.10;;;;;;5073103;28;20017;-49
2022/05/13 12:42:47;;;;;;;6.65;3.20;;;27.70;48.00;;;;;;5067116;28;20413;-45
2022/05/13 12:45:22;;;;;;;13.50;3.50;;;27.60;48.10;;;;;;5064389;28;20365;-51
2022/05/13 12:48:09;;;;;;;8.43;3.60;;;27.60;48.10;;;;;;5046029;28;20029;-47
2022/05/13 12:50:40;;;;;;;8.30;3.75;;;27.60;48.00;;;;;;5060376;28;20604;-49
2022/05/13 12:53:27;;;;;;;6.45;3.60;;;27.60;48.20;;;;;;5080393;28;20024;-49
2022/05/13 12:55:57;;;;;;;5.60;3.50;;;27.60;48.10;;;;;;5084756;28;20477;-51
2022/05/13 12:58:26;;;;;;;8.75;3.75;;;27.60;48.10;;;;;;5088165;28;20111;-50
2022/05/13 13:00:53;;;;;;;6.35;3.50;;;27.60;48.00;;;;;;5070100;28;20047;-47
2022/05/13 13:03:43;;;;;;;7.18;3.25;;;27.60;47.90;;;;;;5045480;28;20457;-48
2022/05/13 13:06:16;;;;;;;7.45;3.53;;;27.60;47.80;;;;;;5081634;28;20073;-49
2022/05/13 13:08:44;;;;;;;10.80;3.60;;;27.60;48.00;;;;;;5087217;28;20473;-47
2022/05/13 13:11:13;;;;;;;7.25;3.80;;;27.60;47.90;;;;;;5080013;28;20038;-51
2022/05/13 13:13:41;;;;;;;7.05;3.88;;;27.60;48.10;;;;;;5080654;28;20016;-49
2022/05/13 13:16:27;;;;;;;7.78;3.97;;;27.60;48.10;;;;;;5079520;28;20077;-51
2022/05/13 13:19:26;;;;;;;5.88;3.53;;;27.60;48.10;;;;;;5081827;28;20552;-51
2022/05/13 13:22:01;;;;;;;8.15;3.40;;;27.60;48.20;;;;;;5079580;28;20450;-53
2022/05/13 13:24:34;;;;;;;5.47;3.65;;;27.70;48.30;;;;;;5069022;28;20042;-48
2022/05/13 13:27:00;;;;;;;8.70;3.58;;;27.70;48.30;;;;;;5057657;28;20043;-46
2022/05/13 13:29:38;;;;;;;7.47;3.88;;;27.70;48.10;;;;;;5082433;28;20032;-48
2022/05/13 13:32:10;;;;;;;8.02;3.58;;;27.80;48.00;;;;;;5080312;28;20028;-51
2022/05/13 13:34:39;;;;;;;13.13;4.50;;;27.80;48.00;;;;;;5067805;28;20073;-44
2022/05/13 13:37:11;;;;;;;5.82;3.40;;;27.80;48.10;;;;;;5084077;28;20066;-46